createdAt,value
2024-02-12T00:01:56.478Z,99647.58
2024-02-12T00:04:28.131Z,99652.61
2024-02-12T00:06:58.518Z,99653.63
2024-02-12T00:09:28.322Z,99661.87
2024-02-12T00:11:58.336Z,99664.09
2024-02-12T00:14:28.254Z,99664.77
2024-02-12T00:17:06.161Z,99665.25
2024-02-12T00:19:39.381Z,99668.17
2024-02-12T00:22:11.558Z,99670.46
2024-02-12T00:24:41.800Z,99677.57
2024-02-12T00:27:12.547Z,99681.52
2024-02-12T00:29:42.303Z,99678.54
2024-02-12T00:32:12.401Z,99677.70
2024-02-12T00:34:42.879Z,99680.82
2024-02-12T00:37:14.862Z,99680.91
2024-02-12T00:39:44.709Z,99682.09
2024-02-12T00:42:14.532Z,99681.13
2024-02-12T00:44:44.412Z,99681.58
2024-02-12T00:47:14.281Z,99685.52
2024-02-12T00:49:45.169Z,99685.98
2024-02-12T00:52:19.465Z,99687.24
2024-02-12T00:54:49.231Z,99689.48
2024-02-12T00:57:22.062Z,99696.20
2024-02-12T00:59:53.059Z,99698.71
2024-02-12T01:02:23.763Z,99698.98
2024-02-12T01:04:55.711Z,99705.45
2024-02-12T01:07:26.302Z,99703.60
2024-02-12T01:09:58.463Z,99706.45
2024-02-12T01:12:28.240Z,99706.45
2024-02-12T01:15:01.375Z,99707.40
2024-02-12T01:17:33.070Z,99711.72
2024-02-12T01:20:03.104Z,99711.91
2024-02-12T01:22:34.509Z,99712.30
2024-02-12T01:25:05.853Z,99714.39
2024-02-12T01:27:35.603Z,99721.05
2024-02-12T01:30:07.087Z,99721.88
2024-02-12T01:32:36.884Z,99723.95
2024-02-12T01:35:07.767Z,99729.98
2024-02-12T01:37:37.711Z,99738.23
2024-02-12T01:40:10.340Z,99734.59
2024-02-12T01:42:40.058Z,99737.47
2024-02-12T01:45:15.119Z,99745.01
2024-02-12T01:47:52.247Z,99751.23
2024-02-12T01:50:22.337Z,99754.96
2024-02-12T01:52:53.614Z,99752.29
2024-02-12T01:55:25.131Z,99753.18
2024-02-12T01:57:55.670Z,99757.81
2024-02-12T02:00:28.666Z,99755.38
2024-02-12T02:02:59.196Z,99755.40
2024-02-12T02:05:29.205Z,99755.50
2024-02-12T02:08:02.080Z,99756.41
2024-02-12T02:10:33.623Z,99758.05
2024-02-12T02:13:04.740Z,99756.57
2024-02-12T02:15:37.391Z,99758.71
2024-02-12T02:18:12.628Z,99761.49
2024-02-12T02:20:42.576Z,99762.16
2024-02-12T02:23:12.730Z,99768.66
2024-02-12T02:25:47.090Z,99772.17
2024-02-12T02:28:16.992Z,99773.85
2024-02-12T02:30:49.715Z,99782.39
2024-02-12T02:33:19.773Z,99778.05
2024-02-12T02:35:49.894Z,99782.79
2024-02-12T02:38:19.938Z,99781.95
2024-02-12T02:40:52.954Z,99782.71
2024-02-12T02:43:22.788Z,99776.83
2024-02-12T02:45:52.810Z,99782.48
2024-02-12T02:48:28.276Z,99787.84
2024-02-12T02:50:59.102Z,99783.83
2024-02-12T02:53:29.010Z,99785.30
2024-02-12T02:55:59.219Z,99786.75
2024-02-12T02:58:28.976Z,99790.36
2024-02-12T03:00:59.163Z,99795.13
2024-02-12T03:03:29.526Z,99794.25
2024-02-12T03:06:00.354Z,99794.41
2024-02-12T03:08:31.441Z,99791.02
2024-02-12T03:11:02.856Z,99795.33
2024-02-12T03:13:32.961Z,99800.61
2024-02-12T03:16:02.810Z,99801.81
2024-02-12T03:18:32.721Z,99800.66
2024-02-12T03:21:03.384Z,99801.80
2024-02-12T03:23:35.354Z,99805.44
2024-02-12T03:26:10.187Z,99803.80
2024-02-12T03:28:38.606Z,99804.05
2024-02-12T03:31:08.700Z,99810.91
2024-02-12T03:33:38.713Z,99814.71
2024-02-12T03:36:10.067Z,99820.06
2024-02-12T03:38:42.468Z,99825.10
2024-02-12T03:41:19.984Z,99820.34
2024-02-12T03:43:54.100Z,99822.91
2024-02-12T03:46:32.440Z,99827.82
2024-02-12T03:49:23.246Z,99826.45
2024-02-12T03:52:11.991Z,99827.70
2024-02-12T03:55:02.408Z,99831.24
2024-02-12T03:57:51.667Z,99833.98
2024-02-12T04:00:24.063Z,99839.89
2024-02-12T04:02:56.960Z,99834.91
2024-02-12T04:05:28.468Z,99838.44
2024-02-12T04:07:58.531Z,99845.79
2024-02-12T04:10:29.526Z,99846.59
2024-02-12T04:13:02.428Z,99852.25
2024-02-12T04:15:32.258Z,99858.50
2024-02-12T04:18:02.050Z,99856.73
2024-02-12T04:20:34.810Z,99857.95
2024-02-12T04:23:08.619Z,99856.11
2024-02-12T04:25:40.994Z,99867.79
2024-02-12T04:28:14.729Z,99872.67
2024-02-12T04:30:48.703Z,99873.52
2024-02-12T04:33:18.555Z,99878.09
2024-02-12T04:35:50.893Z,99880.42
2024-02-12T04:38:22.415Z,99880.70
2024-02-12T04:40:52.357Z,99886.52
2024-02-12T04:43:22.355Z,99890.77
2024-02-12T04:45:55.589Z,99891.41
2024-02-12T04:48:26.094Z,99895.69
2024-02-12T04:50:56.673Z,99897.36
2024-02-12T04:53:27.491Z,99899.45
2024-02-12T04:55:57.428Z,99909.27
2024-02-12T04:58:27.604Z,99906.28
2024-02-12T05:00:59.748Z,99906.70
2024-02-12T05:03:35.053Z,99908.56
2024-02-12T05:06:08.173Z,99911.52
2024-02-12T05:08:38.433Z,99913.35
2024-02-12T05:11:08.306Z,99918.42
2024-02-12T05:13:41.516Z,99921.06
2024-02-12T05:16:11.349Z,99919.23
2024-02-12T05:19:00.653Z,99917.12
2024-02-12T05:21:49.464Z,99916.30
2024-02-12T05:24:23.091Z,99917.86
2024-02-12T05:26:52.923Z,99916.54
2024-02-12T05:29:22.749Z,99918.74
2024-02-12T05:31:52.933Z,99922.70
2024-02-12T05:34:24.543Z,99920.08
2024-02-12T05:36:55.180Z,99918.06
2024-02-12T05:39:27.155Z,99919.27
2024-02-12T05:41:57.013Z,99921.17
2024-02-12T05:44:26.978Z,99921.11
2024-02-12T05:46:56.966Z,99920.19
2024-02-12T05:49:27.392Z,99923.91
2024-02-12T05:51:58.254Z,99927.73
2024-02-12T05:54:28.688Z,99923.55
2024-02-12T05:56:59.014Z,99926.53
2024-02-12T05:59:28.837Z,99926.14
2024-02-12T06:01:58.607Z,99929.55
2024-02-12T06:04:28.356Z,99923.52
2024-02-12T06:06:58.368Z,99925.13
2024-02-12T06:09:31.551Z,99927.13
2024-02-12T06:12:01.348Z,99927.40
2024-02-12T06:14:31.613Z,99938.88
2024-02-12T06:17:01.990Z,99937.98
2024-02-12T06:19:31.822Z,99942.33
2024-02-12T06:22:02.447Z,99937.90
2024-02-12T06:24:32.979Z,99942.25
2024-02-12T06:27:02.883Z,99948.08
2024-02-12T06:29:32.785Z,99946.84
2024-02-12T06:32:02.720Z,99950.73
2024-02-12T06:34:34.709Z,99953.98
2024-02-12T06:37:04.786Z,99960.34
2024-02-12T06:39:34.577Z,99961.77
2024-02-12T06:42:07.613Z,99965.00
2024-02-12T06:44:37.740Z,99969.55
2024-02-12T06:47:11.015Z,99971.31
2024-02-12T06:49:44.191Z,99977.48
2024-02-12T06:52:17.435Z,99985.52
2024-02-12T06:54:49.137Z,99988.16
2024-02-12T06:57:19.237Z,99986.73
2024-02-12T06:59:49.152Z,99994.60
2024-02-12T07:02:21.231Z,99998.39
2024-02-12T07:04:51.104Z,100004.31
2024-02-12T07:07:21.055Z,100009.61
2024-02-12T07:09:55.307Z,100017.88
2024-02-12T07:12:25.082Z,100022.42
2024-02-12T07:14:55.057Z,100026.06
2024-02-12T07:17:27.498Z,100031.07
2024-02-12T07:20:00.248Z,100033.59
2024-02-12T07:22:32.984Z,100040.08
2024-02-12T07:25:06.394Z,100040.38
2024-02-12T07:27:38.010Z,100048.30
2024-02-12T07:30:10.159Z,100054.27
2024-02-12T07:32:42.658Z,100051.16
2024-02-12T07:35:12.821Z,100054.67
2024-02-12T07:37:45.462Z,100056.16
2024-02-12T07:40:18.557Z,100064.38
2024-02-12T07:42:49.246Z,100067.16
2024-02-12T07:45:19.094Z,100069.21
2024-02-12T07:47:51.733Z,100075.84
2024-02-12T07:50:21.926Z,100071.57
2024-02-12T07:52:54.609Z,100077.59
2024-02-12T07:55:25.768Z,100080.56
2024-02-12T07:57:59.622Z,100084.20
2024-02-12T08:00:29.782Z,100096.05
2024-02-12T08:03:02.150Z,100099.73
2024-02-12T08:05:36.321Z,100104.20
2024-02-12T08:08:09.228Z,100110.23
2024-02-12T08:10:39.177Z,100112.92
2024-02-12T08:13:09.398Z,100119.52
2024-02-12T08:15:40.213Z,100120.69
2024-02-12T08:18:10.275Z,100121.89
2024-02-12T08:20:40.676Z,100121.87
2024-02-12T08:23:10.989Z,100120.21
2024-02-12T08:25:41.036Z,100124.11
2024-02-12T08:28:11.002Z,100123.92
2024-02-12T08:30:42.941Z,100132.09
2024-02-12T08:33:15.248Z,100128.55
2024-02-12T08:35:45.172Z,100133.02
2024-02-12T08:38:15.153Z,100140.25
2024-02-12T08:40:45.298Z,100144.81
2024-02-12T08:43:16.321Z,100141.09
2024-02-12T08:45:49.130Z,100148.15
2024-02-12T08:48:19.015Z,100149.19
2024-02-12T08:50:51.657Z,100157.15
2024-02-12T08:53:23.642Z,100164.40
2024-02-12T08:55:56.300Z,100166.29
2024-02-12T08:58:26.111Z,100168.60
2024-02-12T09:00:58.327Z,100168.27
2024-02-12T09:03:28.143Z,100173.76
2024-02-12T09:05:57.999Z,100177.42
2024-02-12T09:08:27.774Z,100182.61
2024-02-12T09:11:00.412Z,100185.76
2024-02-12T09:13:32.420Z,100192.46
2024-02-12T09:16:02.203Z,100201.79
2024-02-12T09:18:32.145Z,100199.95
2024-02-12T09:21:04.080Z,100202.44
2024-02-12T09:23:34.474Z,100205.58
2024-02-12T09:26:07.103Z,100211.45
2024-02-12T09:28:39.625Z,100214.08
2024-02-12T09:31:09.976Z,100217.03
2024-02-12T09:33:39.840Z,100220.63
2024-02-12T09:36:10.258Z,100220.52
2024-02-12T09:38:40.170Z,100225.16
2024-02-12T09:41:12.390Z,100228.15
2024-02-12T09:43:47.773Z,100225.20
2024-02-12T09:46:20.191Z,100236.77
2024-02-12T09:48:50.464Z,100244.13
2024-02-12T09:51:25.035Z,100243.37
2024-02-12T09:53:56.991Z,100241.30
2024-02-12T09:56:27.611Z,100245.79
2024-02-12T09:58:57.893Z,100241.95
2024-02-12T10:01:28.982Z,100251.88
2024-02-12T10:03:59.368Z,100249.75
2024-02-12T10:06:31.775Z,100259.81
2024-02-12T10:09:09.515Z,100263.24
2024-02-12T10:11:41.059Z,100266.41
2024-02-12T10:14:13.069Z,100271.67
2024-02-12T10:16:43.790Z,100274.46
2024-02-12T10:19:13.618Z,100275.48
2024-02-12T10:21:43.419Z,100281.95
2024-02-12T10:24:13.563Z,100286.66
2024-02-12T10:26:44.057Z,100290.16
2024-02-12T10:29:15.233Z,100289.21
2024-02-12T10:31:45.594Z,100290.19
2024-02-12T10:34:21.661Z,100295.36
2024-02-12T10:36:58.895Z,100297.56
2024-02-12T10:39:31.785Z,100304.55
2024-02-12T10:42:27.972Z,100305.98
2024-02-12T10:45:03.764Z,100305.48
2024-02-12T10:47:36.990Z,100308.14
2024-02-12T10:50:14.738Z,100309.75
2024-02-12T10:52:47.767Z,100311.55
2024-02-12T10:55:18.127Z,100309.08
2024-02-12T10:57:48.361Z,100313.93
2024-02-12T11:00:29.590Z,100313.78
2024-02-12T11:02:58.089Z,100316.70
2024-02-12T11:05:31.907Z,100317.66
2024-02-12T11:08:09.817Z,100319.98
2024-02-12T11:10:45.107Z,100323.49
2024-02-12T11:13:20.718Z,100325.85
2024-02-12T11:15:54.396Z,100325.59
2024-02-12T11:18:34.579Z,100324.87
2024-02-12T11:21:09.649Z,100327.52
2024-02-12T11:23:41.852Z,100327.84
2024-02-12T11:26:16.085Z,100329.71
2024-02-12T11:28:54.335Z,100330.86
2024-02-12T11:31:30.095Z,100337.75
2024-02-12T11:34:03.432Z,100338.19
2024-02-12T11:36:34.492Z,100337.60
2024-02-12T11:39:08.430Z,100343.73
2024-02-12T11:41:39.251Z,100346.35
2024-02-12T11:44:09.470Z,100347.48
2024-02-12T11:46:42.189Z,100344.71
2024-02-12T11:49:13.998Z,100356.17
2024-02-12T11:51:43.790Z,100361.66
2024-02-12T11:54:15.263Z,100360.73
2024-02-12T11:56:46.190Z,100361.04
2024-02-12T11:59:19.897Z,100364.30
2024-02-12T12:01:50.172Z,100368.50
2024-02-12T12:04:20.229Z,100369.81
2024-02-12T12:06:52.171Z,100369.23
2024-02-12T12:09:25.114Z,100368.89
2024-02-12T12:11:55.307Z,100368.34
2024-02-12T12:14:26.960Z,100369.56
2024-02-12T12:17:28.347Z,100373.40
2024-02-12T12:19:48.349Z,100374.24
2024-02-12T12:22:21.887Z,100383.45
2024-02-12T12:24:54.850Z,100381.96
2024-02-12T12:27:28.354Z,100383.12
2024-02-12T12:30:14.220Z,100385.64
2024-02-12T12:32:44.954Z,100384.17
2024-02-12T12:35:17.855Z,100381.98
2024-02-12T12:37:48.222Z,100389.52
2024-02-12T12:40:21.274Z,100385.66
2024-02-12T12:42:54.265Z,100389.11
2024-02-12T12:45:26.078Z,100390.22
2024-02-12T12:47:56.137Z,100388.77
2024-02-12T12:50:27.791Z,100387.48
2024-02-12T12:52:57.804Z,100392.52
2024-02-12T12:55:30.546Z,100399.12
2024-02-12T12:58:03.328Z,100403.24
2024-02-12T13:00:37.382Z,100405.70
2024-02-12T13:03:09.926Z,100406.79
2024-02-12T13:05:42.660Z,100405.41
2024-02-12T13:08:19.682Z,100400.73
2024-02-12T13:10:52.775Z,100402.84
2024-02-12T13:13:25.014Z,100402.64
2024-02-12T13:15:54.775Z,100402.45
2024-02-12T13:18:31.306Z,100411.35
2024-02-12T13:21:03.752Z,100409.73
2024-02-12T13:23:33.741Z,100415.15
2024-02-12T13:26:13.487Z,100415.67
2024-02-12T13:28:43.945Z,100422.09
2024-02-12T13:31:16.013Z,100426.63
2024-02-12T13:33:46.284Z,100428.73
2024-02-12T13:36:16.705Z,100429.86
2024-02-12T13:38:47.292Z,100429.95
2024-02-12T13:41:17.687Z,100434.64
2024-02-12T13:43:49.541Z,100436.41
2024-02-12T13:46:36.564Z,100439.64
2024-02-12T13:49:14.164Z,100444.02
2024-02-12T13:51:48.100Z,100440.19
2024-02-12T13:54:17.965Z,100444.71
2024-02-12T13:56:50.044Z,100444.46
2024-02-12T13:59:19.854Z,100448.24
2024-02-12T14:01:55.898Z,100441.77
2024-02-12T14:04:30.710Z,100443.38
2024-02-12T14:07:00.766Z,100452.99
2024-02-12T14:09:31.150Z,100455.72
2024-02-12T14:12:01.606Z,100462.80
2024-02-12T14:14:31.415Z,100462.48
2024-02-12T14:17:01.325Z,100471.77
2024-02-12T14:19:31.334Z,100478.17
2024-02-12T14:22:01.259Z,100483.89
2024-02-12T14:24:33.308Z,100487.02
2024-02-12T14:27:07.539Z,100484.68
2024-02-12T14:29:39.195Z,100485.84
2024-02-12T14:32:38.283Z,100489.05
2024-02-12T14:34:59.315Z,100495.01
2024-02-12T14:37:29.761Z,100497.60
2024-02-12T14:40:02.574Z,100497.41
2024-02-12T14:42:34.939Z,100504.04
2024-02-12T14:45:06.800Z,100518.63
2024-02-12T14:47:42.424Z,100522.38
2024-02-12T14:50:20.009Z,100522.42
2024-02-12T14:52:54.542Z,100523.30
2024-02-12T14:55:24.350Z,100528.23
2024-02-12T14:57:58.983Z,100531.24
2024-02-12T15:00:29.371Z,100533.70
2024-02-12T15:03:01.658Z,100535.48
2024-02-12T15:05:31.481Z,100536.83
2024-02-12T15:08:01.550Z,100537.02
2024-02-12T15:10:36.325Z,100546.98
2024-02-12T15:13:06.580Z,100554.53
2024-02-12T15:15:40.992Z,100558.92
2024-02-12T15:18:13.795Z,100564.92
2024-02-12T15:20:47.439Z,100570.61
2024-02-12T15:23:17.807Z,100574.74
2024-02-12T15:25:47.664Z,100577.65
2024-02-12T15:28:18.038Z,100584.95
2024-02-12T15:30:49.785Z,100585.45
2024-02-12T15:33:20.333Z,100589.25
2024-02-12T15:35:51.889Z,100590.66
2024-02-12T15:38:23.529Z,100604.41
2024-02-12T15:40:55.764Z,100608.52
2024-02-12T15:43:26.817Z,100609.56
2024-02-12T15:45:59.533Z,100621.52
2024-02-12T15:48:29.642Z,100625.41
2024-02-12T15:51:01.159Z,100626.05
2024-02-12T15:53:31.526Z,100628.08
2024-02-12T15:56:06.097Z,100632.35
2024-02-12T15:58:38.379Z,100629.39
2024-02-12T16:01:09.877Z,100636.05
2024-02-12T16:03:42.515Z,100641.54
2024-02-12T16:06:16.094Z,100641.42
2024-02-12T16:08:46.349Z,100642.37
2024-02-12T16:11:19.837Z,100645.91
2024-02-12T16:13:53.653Z,100653.10
2024-02-12T16:16:27.866Z,100659.85
2024-02-12T16:19:01.529Z,100656.11
2024-02-12T16:21:33.810Z,100662.27
2024-02-12T16:24:03.846Z,100659.55
2024-02-12T16:26:34.078Z,100656.48
2024-02-12T16:29:06.482Z,100665.21
2024-02-12T16:31:40.970Z,100670.17
2024-02-12T16:34:11.338Z,100673.45
2024-02-12T16:36:43.854Z,100680.05
2024-02-12T16:39:15.567Z,100690.20
2024-02-12T16:41:45.993Z,100695.17
2024-02-12T16:44:15.918Z,100699.91
2024-02-12T16:46:46.591Z,100704.75
2024-02-12T16:49:16.838Z,100709.86
2024-02-12T16:51:51.011Z,100713.91
2024-02-12T16:54:21.132Z,100721.13
2024-02-12T16:56:53.716Z,100721.81
2024-02-12T16:59:26.133Z,100728.39
2024-02-12T17:01:56.035Z,100736.00
2024-02-12T17:04:26.127Z,100734.23
2024-02-12T17:06:56.099Z,100740.13
2024-02-12T17:09:26.317Z,100749.58
2024-02-12T17:11:56.165Z,100756.20
2024-02-12T17:14:28.500Z,100757.02
2024-02-12T17:16:58.326Z,100766.73
2024-02-12T17:19:28.313Z,100772.87
2024-02-12T17:21:58.074Z,100776.39
2024-02-12T17:24:27.887Z,100777.70
2024-02-12T17:26:57.636Z,100785.77
2024-02-12T17:29:28.492Z,100789.67
2024-02-12T17:31:58.919Z,100793.77
2024-02-12T17:34:31.210Z,100795.80
2024-02-12T17:37:01.357Z,100802.40
2024-02-12T17:39:36.826Z,100810.88
2024-02-12T17:42:10.116Z,100819.44
2024-02-12T17:44:39.846Z,100828.20
2024-02-12T17:47:12.415Z,100834.76
2024-02-12T17:49:49.252Z,100842.92
2024-02-12T17:52:25.054Z,100849.81
2024-02-12T17:54:54.850Z,100854.87
2024-02-12T17:57:27.289Z,100857.96
2024-02-12T17:59:57.287Z,100859.65
2024-02-12T18:02:27.423Z,100864.10
2024-02-12T18:04:59.298Z,100868.42
2024-02-12T18:07:32.715Z,100877.75
2024-02-12T18:10:02.461Z,100884.98
2024-02-12T18:12:35.528Z,100888.48
2024-02-12T18:15:06.220Z,100893.27
2024-02-12T18:17:39.019Z,100895.85
2024-02-12T18:20:14.981Z,100898.95
2024-02-12T18:22:44.843Z,100904.47
2024-02-12T18:25:15.838Z,100905.76
2024-02-12T18:27:46.822Z,100911.19
2024-02-12T18:30:17.271Z,100914.14
2024-02-12T18:32:49.170Z,100914.59
2024-02-12T18:35:19.316Z,100919.27
2024-02-12T18:37:51.407Z,100923.19
2024-02-12T18:40:22.753Z,100928.66
2024-02-12T18:42:54.979Z,100931.80
2024-02-12T18:45:26.398Z,100934.40
2024-02-12T18:48:00.799Z,100937.15
2024-02-12T18:50:30.816Z,100937.60
2024-02-12T18:53:02.140Z,100940.02
2024-02-12T18:55:35.615Z,100944.04
2024-02-12T18:58:07.983Z,100947.98
2024-02-12T19:00:40.934Z,100954.15
2024-02-12T19:03:11.584Z,100956.80
2024-02-12T19:05:43.246Z,100961.09
2024-02-12T19:08:16.751Z,100965.70
2024-02-12T19:10:49.200Z,100972.23
2024-02-12T19:13:21.214Z,100977.59
2024-02-12T19:15:51.986Z,100986.27
2024-02-12T19:18:25.321Z,100992.23
2024-02-12T19:20:59.722Z,101001.38
2024-02-12T19:23:29.500Z,101006.06
2024-02-12T19:26:00.617Z,101003.77
2024-02-12T19:28:30.786Z,101005.74
2024-02-12T19:31:00.677Z,101010.20
2024-02-12T19:33:31.270Z,101009.14
2024-02-12T19:36:01.457Z,101011.43
2024-02-12T19:38:31.300Z,101012.59
2024-02-12T19:41:01.112Z,101017.70
2024-02-12T19:43:30.943Z,101016.88
2024-02-12T19:46:00.821Z,101020.87
2024-02-12T19:48:31.149Z,101024.18
2024-02-12T19:51:01.107Z,101028.52
2024-02-12T19:53:31.174Z,101035.52
2024-02-12T19:56:05.138Z,101037.04
2024-02-12T19:58:35.581Z,101039.43
2024-02-12T20:01:07.768Z,101041.27
2024-02-12T20:03:37.978Z,101046.72
2024-02-12T20:06:11.001Z,101049.02
2024-02-12T20:08:42.480Z,101049.75
2024-02-12T20:11:13.294Z,101053.69
2024-02-12T20:13:45.368Z,101060.85
2024-02-12T20:16:17.977Z,101059.45
2024-02-12T20:18:47.955Z,101066.95
2024-02-12T20:21:20.600Z,101072.45
2024-02-12T20:23:50.485Z,101076.33
2024-02-12T20:26:22.366Z,101078.73
2024-02-12T20:28:54.772Z,101086.02
2024-02-12T20:31:24.615Z,101080.85
2024-02-12T20:33:54.696Z,101082.42
2024-02-12T20:36:26.741Z,101088.20
2024-02-12T20:38:56.622Z,101089.89
2024-02-12T20:41:26.475Z,101088.79
2024-02-12T20:43:56.267Z,101089.99
2024-02-12T20:46:31.855Z,101088.95
2024-02-12T20:49:07.701Z,101095.85
2024-02-12T20:51:40.049Z,101093.01
2024-02-12T20:54:12.661Z,101099.15
2024-02-12T20:56:43.564Z,101104.04
2024-02-12T20:59:14.309Z,101111.70
2024-02-12T21:01:45.070Z,101112.38
2024-02-12T21:04:14.890Z,101115.66
2024-02-12T21:06:46.985Z,101118.05
2024-02-12T21:09:19.971Z,101117.98
2024-02-12T21:11:49.862Z,101125.59
2024-02-12T21:14:24.423Z,101129.10
2024-02-12T21:16:56.795Z,101133.82
2024-02-12T21:19:28.710Z,101138.85
2024-02-12T21:21:58.661Z,101142.35
2024-02-12T21:24:28.482Z,101144.17
2024-02-12T21:27:00.617Z,101146.73
2024-02-12T21:29:30.663Z,101153.44
2024-02-12T21:32:01.612Z,101154.38
2024-02-12T21:34:36.430Z,101160.55
2024-02-12T21:37:11.645Z,101164.62
2024-02-12T21:39:47.041Z,101165.74
2024-02-12T21:42:27.956Z,101166.64
2024-02-12T21:44:59.904Z,101166.16
2024-02-12T21:47:29.989Z,101166.66
2024-02-12T21:49:59.960Z,101165.31
2024-02-12T21:52:29.755Z,101162.64
2024-02-12T21:54:59.484Z,101166.98
2024-02-12T21:57:32.475Z,101170.05
2024-02-12T22:00:08.445Z,101177.09
2024-02-12T22:02:42.858Z,101177.95
2024-02-12T22:05:12.914Z,101183.23
2024-02-12T22:07:45.684Z,101188.70
2024-02-12T22:10:17.686Z,101190.12
2024-02-12T22:12:47.529Z,101192.11
2024-02-12T22:15:17.494Z,101193.81
2024-02-12T22:17:47.399Z,101198.23
2024-02-12T22:20:20.047Z,101198.05
2024-02-12T22:22:50.113Z,101203.69
2024-02-12T22:25:22.144Z,101203.41
2024-02-12T22:27:57.159Z,101205.22
2024-02-12T22:30:25.418Z,101220.02
2024-02-12T22:32:59.049Z,101218.19
2024-02-12T22:35:29.888Z,101219.20
2024-02-12T22:38:00.083Z,101227.40
2024-02-12T22:40:30.086Z,101227.31
2024-02-12T22:42:59.954Z,101237.04
2024-02-12T22:45:29.699Z,101243.53
2024-02-12T22:48:02.583Z,101240.05
2024-02-12T22:50:35.504Z,101244.09
2024-02-12T22:53:05.698Z,101245.50
2024-02-12T22:55:35.525Z,101243.05
2024-02-12T22:58:09.564Z,101246.30
2024-02-12T23:00:42.472Z,101248.98
2024-02-12T23:03:14.257Z,101251.79
2024-02-12T23:05:46.472Z,101254.42
2024-02-12T23:08:16.794Z,101257.58
2024-02-12T23:10:46.879Z,101258.46
2024-02-12T23:13:18.169Z,101260.25
2024-02-12T23:15:48.040Z,101262.04
2024-02-12T23:18:18.565Z,101264.74
2024-02-12T23:20:49.018Z,101269.18
2024-02-12T23:23:18.929Z,101269.57
2024-02-12T23:25:51.431Z,101269.81
2024-02-12T23:28:23.916Z,101272.56
2024-02-12T23:30:56.003Z,101275.81
2024-02-12T23:33:26.855Z,101280.63
2024-02-12T23:35:57.031Z,101287.39
2024-02-12T23:38:30.653Z,101289.27
2024-02-12T23:41:00.480Z,101294.89
2024-02-12T23:43:30.791Z,101295.84
2024-02-12T23:46:01.005Z,101300.98
2024-02-12T23:48:32.722Z,101306.42
2024-02-12T23:51:08.618Z,101310.45
2024-02-12T23:53:42.826Z,101317.27
2024-02-12T23:56:24.115Z,101320.24
2024-02-12T23:58:54.169Z,101328.38
